Midway, Iowa
Current Conditions -  °F | °C
As of 7:58 AM on Monday 24 Nov 2014 (Local Time) from KCID Reporting Station
Light Snow Light Snow  
Wind Chill: 11°   Ceiling: 1400
Heat Index: 27°   Visibility: 3mi
Dew Point: 25°   Wind: 31mph
Humidity: 92%   Direction: 300°WNW
Pressure: 29.36"   Gusts: 36mph
Location:  42.0672°N, 91.5782°W
Report Text: KCID 241358Z 30027G31KT 3SM -SN BR BKN014 OVC019 M03/M04 A2936 RMK AO2 PK WND 29031/1354 P0000 T10281039
Loading
Personal Weather Stations






























Interactive Weather Map New forecast layout! Learn more

10-Day Weather Forecast

Advertisements
Track Severe Weather on mobile